sensor_id;sensor_type;location;lat;lon;timestamp;temperature;humidity
67750;DHT22;54550;48.838;8.828;2022-11-20T00:01:48;4.50;99.90
67750;DHT22;54550;48.838;8.828;2022-11-20T00:04:14;4.50;99.90
67750;DHT22;54550;48.838;8.828;2022-11-20T00:06:39;4.50;99.90
67750;DHT22;54550;48.838;8.828;2022-11-20T00:09:05;4.50;99.90
67750;DHT22;54550;48.838;8.828;2022-11-20T00:11:32;4.60;99.90
67750;DHT22;54550;48.838;8.828;2022-11-20T00:14:00;4.50;99.90
67750;DHT22;54550;48.838;8.828;2022-11-20T00:16:27;4.50;99.90
67750;DHT22;54550;48.838;8.828;2022-11-20T00:18:53;4.40;99.90
67750;DHT22;54550;48.838;8.828;2022-11-20T00:21:24;4.30;99.90
67750;DHT22;54550;48.838;8.828;2022-11-20T00:23:51;4.30;99.90
67750;DHT22;54550;48.838;8.828;2022-11-20T00:26:18;4.50;99.90
67750;DHT22;54550;48.838;8.828;2022-11-20T00:28:49;4.30;99.90
67750;DHT22;54550;48.838;8.828;2022-11-20T00:31:16;4.40;99.90
67750;DHT22;54550;48.838;8.828;2022-11-20T00:33:43;4.30;99.90
67750;DHT22;54550;48.838;8.828;2022-11-20T00:36:11;4.30;99.90
67750;DHT22;54550;48.838;8.828;2022-11-20T00:38:36;4.50;99.90
67750;DHT22;54550;48.838;8.828;2022-11-20T00:41:06;4.20;99.90
67750;DHT22;54550;48.838;8.828;2022-11-20T00:43:32;4.10;99.90
67750;DHT22;54550;48.838;8.828;2022-11-20T00:46:04;4.00;99.90
67750;DHT22;54550;48.838;8.828;2022-11-20T00:48:30;4.00;99.90
67750;DHT22;54550;48.838;8.828;2022-11-20T00:50:56;3.80;99.90
67750;DHT22;54550;48.838;8.828;2022-11-20T00:53:22;3.90;99.90
67750;DHT22;54550;48.838;8.828;2022-11-20T00:56:09;3.80;99.90
67750;DHT22;54550;48.838;8.828;2022-11-20T00:58:37;3.80;99.90
67750;DHT22;54550;48.838;8.828;2022-11-20T01:01:12;3.80;99.90
67750;DHT22;54550;48.838;8.828;2022-11-20T01:03:45;3.80;99.90
67750;DHT22;54550;48.838;8.828;2022-11-20T01:06:13;3.70;99.90
67750;DHT22;54550;48.838;8.828;2022-11-20T01:08:39;3.60;99.90
67750;DHT22;54550;48.838;8.828;2022-11-20T01:11:08;3.60;99.90
67750;DHT22;54550;48.838;8.828;2022-11-20T01:13:35;3.70;99.90
67750;DHT22;54550;48.838;8.828;2022-11-20T01:18:38;3.30;99.90
67750;DHT22;54550;48.838;8.828;2022-11-20T01:21:07;3.40;99.90
67750;DHT22;54550;48.838;8.828;2022-11-20T01:23:35;4.00;99.90
67750;DHT22;54550;48.838;8.828;2022-11-20T01:26:02;3.10;99.90
67750;DHT22;54550;48.838;8.828;2022-11-20T01:28:29;3.00;99.90
67750;DHT22;54550;48.838;8.828;2022-11-20T01:30:54;3.00;99.90
67750;DHT22;54550;48.838;8.828;2022-11-20T01:33:20;3.00;99.90
67750;DHT22;54550;48.838;8.828;2022-11-20T01:35:45;3.00;99.90
67750;DHT22;54550;48.838;8.828;2022-11-20T01:38:11;3.10;99.90
67750;DHT22;54550;48.838;8.828;2022-11-20T01:40:37;3.20;99.90
67750;DHT22;54550;48.838;8.828;2022-11-20T01:43:19;3.20;99.90
67750;DHT22;54550;48.838;8.828;2022-11-20T01:46:01;3.40;99.90
67750;DHT22;54550;48.838;8.828;2022-11-20T01:48:54;3.20;99.90
67750;DHT22;54550;48.838;8.828;2022-11-20T01:54:13;3.50;99.90
67750;DHT22;54550;48.838;8.828;2022-11-20T01:56:42;3.60;99.90
67750;DHT22;54550;48.838;8.828;2022-11-20T01:59:10;3.70;99.90
67750;DHT22;54550;48.838;8.828;2022-11-20T02:01:37;3.70;99.90
67750;DHT22;54550;48.838;8.828;2022-11-20T02:04:04;3.90;99.90
67750;DHT22;54550;48.838;8.828;2022-11-20T02:06:36;3.90;99.90
67750;DHT22;54550;48.838;8.828;2022-11-20T02:09:03;3.90;99.90
67750;DHT22;54550;48.838;8.828;2022-11-20T02:11:30;3.90;99.90
67750;DHT22;54550;48.838;8.828;2022-11-20T02:13:57;4.00;99.90
67750;DHT22;54550;48.838;8.828;2022-11-20T02:16:35;4.10;99.90
67750;DHT22;54550;48.838;8.828;2022-11-20T02:19:04;4.10;99.90
67750;DHT22;54550;48.838;8.828;2022-11-20T02:21:46;4.00;99.90
67750;DHT22;54550;48.838;8.828;2022-11-20T02:24:15;4.00;99.90
67750;DHT22;54550;48.838;8.828;2022-11-20T02:26:56;4.20;99.90
67750;DHT22;54550;48.838;8.828;2022-11-20T02:32:28;3.80;99.90
67750;DHT22;54550;48.838;8.828;2022-11-20T02:34:54;3.80;99.90
67750;DHT22;54550;48.838;8.828;2022-11-20T02:37:21;3.80;99.90
67750;DHT22;54550;48.838;8.828;2022-11-20T02:39:48;3.80;99.90
67750;DHT22;54550;48.838;8.828;2022-11-20T02:42:14;4.00;99.90
67750;DHT22;54550;48.838;8.828;2022-11-20T02:44:39;3.90;99.90
67750;DHT22;54550;48.838;8.828;2022-11-20T02:47:05;3.70;99.90
67750;DHT22;54550;48.838;8.828;2022-11-20T02:49:31;3.80;99.90
67750;DHT22;54550;48.838;8.828;2022-11-20T02:51:56;3.80;99.90
67750;DHT22;54550;48.838;8.828;2022-11-20T02:54:23;3.80;99.90
67750;DHT22;54550;48.838;8.828;2022-11-20T02:56:48;4.00;99.90
67750;DHT22;54550;48.838;8.828;2022-11-20T02:59:14;3.90;99.90
67750;DHT22;54550;48.838;8.828;2022-11-20T03:01:39;4.20;99.90
67750;DHT22;54550;48.838;8.828;2022-11-20T03:04:05;3.60;99.90
67750;DHT22;54550;48.838;8.828;2022-11-20T03:06:31;3.60;99.90
67750;DHT22;54550;48.838;8.828;2022-11-20T03:08:56;3.60;99.90
67750;DHT22;54550;48.838;8.828;2022-11-20T03:11:22;3.40;99.90
67750;DHT22;54550;48.838;8.828;2022-11-20T03:13:47;3.30;99.90
67750;DHT22;54550;48.838;8.828;2022-11-20T03:16:16;3.20;99.90
67750;DHT22;54550;48.838;8.828;2022-11-20T03:18:42;3.80;99.90
67750;DHT22;54550;48.838;8.828;2022-11-20T03:21:09;3.10;99.90
67750;DHT22;54550;48.838;8.828;2022-11-20T03:23:36;3.10;99.90
67750;DHT22;54550;48.838;8.828;2022-11-20T03:26:13;3.10;99.90
67750;DHT22;54550;48.838;8.828;2022-11-20T03:28:40;3.30;99.90
67750;DHT22;54550;48.838;8.828;2022-11-20T03:31:07;3.40;99.90
67750;DHT22;54550;48.838;8.828;2022-11-20T03:33:33;3.30;99.90
67750;DHT22;54550;48.838;8.828;2022-11-20T03:36:04;3.30;99.90
67750;DHT22;54550;48.838;8.828;2022-11-20T03:38:30;3.40;99.90
67750;DHT22;54550;48.838;8.828;2022-11-20T03:41:08;3.50;99.90
67750;DHT22;54550;48.838;8.828;2022-11-20T03:43:33;3.30;99.90
67750;DHT22;54550;48.838;8.828;2022-11-20T03:45:59;3.50;99.90
67750;DHT22;54550;48.838;8.828;2022-11-20T03:48:25;3.40;99.90
67750;DHT22;54550;48.838;8.828;2022-11-20T03:50:52;3.30;99.90
67750;DHT22;54550;48.838;8.828;2022-11-20T03:53:18;3.30;99.90
67750;DHT22;54550;48.838;8.828;2022-11-20T03:55:44;3.30;99.90
67750;DHT22;54550;48.838;8.828;2022-11-20T03:58:10;3.30;99.90
67750;DHT22;54550;48.838;8.828;2022-11-20T04:00:36;3.50;99.90
67750;DHT22;54550;48.838;8.828;2022-11-20T04:03:02;3.60;99.90
67750;DHT22;54550;48.838;8.828;2022-11-20T04:05:28;3.90;99.90
67750;DHT22;54550;48.838;8.828;2022-11-20T04:07:53;3.90;99.90
67750;DHT22;54550;48.838;8.828;2022-11-20T04:10:19;4.00;99.90
67750;DHT22;54550;48.838;8.828;2022-11-20T04:12:45;4.20;99.90
67750;DHT22;54550;48.838;8.828;2022-11-20T04:15:10;4.30;99.90
67750;DHT22;54550;48.838;8.828;2022-11-20T04:17:36;4.30;99.90
67750;DHT22;54550;48.838;8.828;2022-11-20T04:20:02;5.10;99.90
67750;DHT22;54550;48.838;8.828;2022-11-20T04:22:28;4.60;99.90
67750;DHT22;54550;48.838;8.828;2022-11-20T04:24:53;4.60;99.90
67750;DHT22;54550;48.838;8.828;2022-11-20T04:27:20;4.60;99.90
67750;DHT22;54550;48.838;8.828;2022-11-20T04:29:45;4.60;99.90
67750;DHT22;54550;48.838;8.828;2022-11-20T04:32:11;4.60;99.90
67750;DHT22;54550;48.838;8.828;2022-11-20T04:34:36;4.60;99.90
67750;DHT22;54550;48.838;8.828;2022-11-20T04:37:02;5.20;99.90
67750;DHT22;54550;48.838;8.828;2022-11-20T04:39:28;4.70;99.90
67750;DHT22;54550;48.838;8.828;2022-11-20T04:41:53;5.10;99.90
67750;DHT22;54550;48.838;8.828;2022-11-20T04:44:39;4.70;99.90
67750;DHT22;54550;48.838;8.828;2022-11-20T04:47:04;4.70;99.90
67750;DHT22;54550;48.838;8.828;2022-11-20T04:49:30;4.70;99.90
67750;DHT22;54550;48.838;8.828;2022-11-20T04:51:57;4.90;99.90
67750;DHT22;54550;48.838;8.828;2022-11-20T04:54:23;4.80;99.90
67750;DHT22;54550;48.838;8.828;2022-11-20T04:56:48;4.80;99.90
67750;DHT22;54550;48.838;8.828;2022-11-20T04:59:14;4.90;99.90
67750;DHT22;54550;48.838;8.828;2022-11-20T05:01:40;4.90;99.90
67750;DHT22;54550;48.838;8.828;2022-11-20T05:04:05;4.90;99.90
67750;DHT22;54550;48.838;8.828;2022-11-20T05:06:31;4.90;99.90
67750;DHT22;54550;48.838;8.828;2022-11-20T05:08:57;5.20;99.90
67750;DHT22;54550;48.838;8.828;2022-11-20T05:11:23;5.00;99.90
67750;DHT22;54550;48.838;8.828;2022-11-20T05:13:51;4.90;99.90
67750;DHT22;54550;48.838;8.828;2022-11-20T05:16:21;5.50;99.90
67750;DHT22;54550;48.838;8.828;2022-11-20T05:18:48;4.90;99.90
67750;DHT22;54550;48.838;8.828;2022-11-20T05:21:14;4.90;99.90
67750;DHT22;54550;48.838;8.828;2022-11-20T05:23:41;4.90;99.90
67750;DHT22;54550;48.838;8.828;2022-11-20T05:26:11;5.30;99.90
67750;DHT22;54550;48.838;8.828;2022-11-20T05:28:37;5.00;99.90
67750;DHT22;54550;48.838;8.828;2022-11-20T05:31:15;4.80;99.90
67750;DHT22;54550;48.838;8.828;2022-11-20T05:33:42;4.90;99.90
67750;DHT22;54550;48.838;8.828;2022-11-20T05:36:08;4.80;99.90
67750;DHT22;54550;48.838;8.828;2022-11-20T05:38:34;4.90;99.90
67750;DHT22;54550;48.838;8.828;2022-11-20T05:41:11;5.40;99.90
67750;DHT22;54550;48.838;8.828;2022-11-20T05:43:39;4.90;99.90
67750;DHT22;54550;48.838;8.828;2022-11-20T05:46:06;4.90;99.90
67750;DHT22;54550;48.838;8.828;2022-11-20T05:48:33;5.30;99.90
67750;DHT22;54550;48.838;8.828;2022-11-20T05:51:00;4.90;99.90
67750;DHT22;54550;48.838;8.828;2022-11-20T05:53:26;4.80;99.90
67750;DHT22;54550;48.838;8.828;2022-11-20T05:55:59;5.00;99.90
67750;DHT22;54550;48.838;8.828;2022-11-20T05:58:25;4.80;99.90
67750;DHT22;54550;48.838;8.828;2022-11-20T06:00:51;4.90;99.90
67750;DHT22;54550;48.838;8.828;2022-11-20T06:03:17;4.90;99.90
67750;DHT22;54550;48.838;8.828;2022-11-20T06:05:42;4.90;99.90
67750;DHT22;54550;48.838;8.828;2022-11-20T06:08:08;5.00;99.90
67750;DHT22;54550;48.838;8.828;2022-11-20T06:10:33;4.90;99.90
67750;DHT22;54550;48.838;8.828;2022-11-20T06:12:59;4.80;99.90
67750;DHT22;54550;48.838;8.828;2022-11-20T06:15:25;4.80;99.90
67750;DHT22;54550;48.838;8.828;2022-11-20T06:17:54;4.70;99.90
67750;DHT22;54550;48.838;8.828;2022-11-20T06:20:21;4.90;99.90
67750;DHT22;54550;48.838;8.828;2022-11-20T06:22:47;4.80;99.90
67750;DHT22;54550;48.838;8.828;2022-11-20T06:25:13;4.80;99.90
67750;DHT22;54550;48.838;8.828;2022-11-20T06:27:39;4.60;99.90
67750;DHT22;54550;48.838;8.828;2022-11-20T06:30:05;4.90;99.90
67750;DHT22;54550;48.838;8.828;2022-11-20T06:32:30;4.70;99.90
67750;DHT22;54550;48.838;8.828;2022-11-20T06:34:56;4.70;99.90
67750;DHT22;54550;48.838;8.828;2022-11-20T06:37:22;4.70;99.90
67750;DHT22;54550;48.838;8.828;2022-11-20T06:39:47;4.80;99.90
67750;DHT22;54550;48.838;8.828;2022-11-20T06:42:13;4.90;99.90
67750;DHT22;54550;48.838;8.828;2022-11-20T06:44:38;4.90;99.90
67750;DHT22;54550;48.838;8.828;2022-11-20T06:47:04;4.80;99.90
67750;DHT22;54550;48.838;8.828;2022-11-20T06:49:29;5.20;99.90
67750;DHT22;54550;48.838;8.828;2022-11-20T06:51:55;4.90;99.90
67750;DHT22;54550;48.838;8.828;2022-11-20T06:54:20;4.90;99.90
67750;DHT22;54550;48.838;8.828;2022-11-20T06:56:47;5.20;99.90
67750;DHT22;54550;48.838;8.828;2022-11-20T06:59:14;5.10;99.90
67750;DHT22;54550;48.838;8.828;2022-11-20T07:01:40;5.00;99.90
67750;DHT22;54550;48.838;8.828;2022-11-20T07:04:05;5.00;99.90
67750;DHT22;54550;48.838;8.828;2022-11-20T07:06:31;5.10;99.90
67750;DHT22;54550;48.838;8.828;2022-11-20T07:08:57;5.00;99.90
67750;DHT22;54550;48.838;8.828;2022-11-20T07:11:23;5.60;99.90
67750;DHT22;54550;48.838;8.828;2022-11-20T07:13:49;5.50;99.90
67750;DHT22;54550;48.838;8.828;2022-11-20T07:16:14;5.30;99.90
67750;DHT22;54550;48.838;8.828;2022-11-20T07:18:40;5.50;99.90
67750;DHT22;54550;48.838;8.828;2022-11-20T07:21:08;5.40;99.90
67750;DHT22;54550;48.838;8.828;2022-11-20T07:23:34;5.60;99.90
67750;DHT22;54550;48.838;8.828;2022-11-20T07:26:07;6.00;99.90
67750;DHT22;54550;48.838;8.828;2022-11-20T07:28:33;5.50;99.90
67750;DHT22;54550;48.838;8.828;2022-11-20T07:30:59;6.10;99.90
67750;DHT22;54550;48.838;8.828;2022-11-20T07:33:25;5.50;99.90
67750;DHT22;54550;48.838;8.828;2022-11-20T07:35:50;5.40;99.90
67750;DHT22;54550;48.838;8.828;2022-11-20T07:38:16;5.40;99.90
67750;DHT22;54550;48.838;8.828;2022-11-20T07:40:42;5.40;99.90
67750;DHT22;54550;48.838;8.828;2022-11-20T07:43:07;5.50;99.90
67750;DHT22;54550;48.838;8.828;2022-11-20T07:45:33;5.50;99.90
67750;DHT22;54550;48.838;8.828;2022-11-20T07:47:59;5.80;99.90
67750;DHT22;54550;48.838;8.828;2022-11-20T07:50:24;5.30;99.90
67750;DHT22;54550;48.838;8.828;2022-11-20T07:52:50;5.60;99.90
67750;DHT22;54550;48.838;8.828;2022-11-20T07:55:16;6.00;99.90
67750;DHT22;54550;48.838;8.828;2022-11-20T07:57:41;5.40;99.90
67750;DHT22;54550;48.838;8.828;2022-11-20T08:00:10;5.30;99.90
67750;DHT22;54550;48.838;8.828;2022-11-20T08:02:40;5.40;99.90
67750;DHT22;54550;48.838;8.828;2022-11-20T08:05:06;5.30;99.90
67750;DHT22;54550;48.838;8.828;2022-11-20T08:07:39;5.40;99.90
67750;DHT22;54550;48.838;8.828;2022-11-20T08:10:06;5.40;99.90
67750;DHT22;54550;48.838;8.828;2022-11-20T08:12:32;5.40;99.90
67750;DHT22;54550;48.838;8.828;2022-11-20T08:15:16;5.60;99.90
67750;DHT22;54550;48.838;8.828;2022-11-20T08:17:42;5.40;99.90
67750;DHT22;54550;48.838;8.828;2022-11-20T08:20:08;5.40;99.90
67750;DHT22;54550;48.838;8.828;2022-11-20T08:22:34;5.40;99.90
67750;DHT22;54550;48.838;8.828;2022-11-20T08:25:00;5.40;99.90
67750;DHT22;54550;48.838;8.828;2022-11-20T08:27:25;5.40;99.90
67750;DHT22;54550;48.838;8.828;2022-11-20T08:29:51;5.40;99.90
67750;DHT22;54550;48.838;8.828;2022-11-20T08:32:17;5.40;99.90
67750;DHT22;54550;48.838;8.828;2022-11-20T08:34:42;5.40;99.90
67750;DHT22;54550;48.838;8.828;2022-11-20T08:37:08;5.50;99.90
67750;DHT22;54550;48.838;8.828;2022-11-20T08:39:33;5.40;99.90
67750;DHT22;54550;48.838;8.828;2022-11-20T08:41:59;5.40;99.90
67750;DHT22;54550;48.838;8.828;2022-11-20T08:44:25;5.50;99.90
67750;DHT22;54550;48.838;8.828;2022-11-20T08:46:50;5.50;99.90
67750;DHT22;54550;48.838;8.828;2022-11-20T08:49:16;5.40;99.90
67750;DHT22;54550;48.838;8.828;2022-11-20T08:51:43;5.40;99.90
67750;DHT22;54550;48.838;8.828;2022-11-20T08:54:09;5.40;99.90
67750;DHT22;54550;48.838;8.828;2022-11-20T08:56:35;5.40;99.90
67750;DHT22;54550;48.838;8.828;2022-11-20T08:59:01;5.60;99.90
67750;DHT22;54550;48.838;8.828;2022-11-20T09:01:28;5.70;99.90
67750;DHT22;54550;48.838;8.828;2022-11-20T09:03:57;5.60;99.90
67750;DHT22;54550;48.838;8.828;2022-11-20T09:06:25;5.60;99.90
67750;DHT22;54550;48.838;8.828;2022-11-20T09:08:53;5.70;99.90
67750;DHT22;54550;48.838;8.828;2022-11-20T09:11:19;5.60;99.90
67750;DHT22;54550;48.838;8.828;2022-11-20T09:13:44;5.60;99.90
67750;DHT22;54550;48.838;8.828;2022-11-20T09:16:10;5.60;99.90
67750;DHT22;54550;48.838;8.828;2022-11-20T09:18:36;5.70;99.90
67750;DHT22;54550;48.838;8.828;2022-11-20T09:21:09;5.80;99.90
67750;DHT22;54550;48.838;8.828;2022-11-20T09:23:36;5.80;99.90
67750;DHT22;54550;48.838;8.828;2022-11-20T09:26:08;6.10;99.90
67750;DHT22;54550;48.838;8.828;2022-11-20T09:28:34;5.80;99.90
67750;DHT22;54550;48.838;8.828;2022-11-20T09:31:00;6.20;99.90
67750;DHT22;54550;48.838;8.828;2022-11-20T09:33:26;5.80;99.90
67750;DHT22;54550;48.838;8.828;2022-11-20T09:35:52;5.70;99.90
67750;DHT22;54550;48.838;8.828;2022-11-20T09:38:18;5.70;99.90
67750;DHT22;54550;48.838;8.828;2022-11-20T09:41:04;5.70;99.90
67750;DHT22;54550;48.838;8.828;2022-11-20T09:43:58;5.80;99.90
67750;DHT22;54550;48.838;8.828;2022-11-20T09:55:37;5.80;99.90
67750;DHT22;54550;48.838;8.828;2022-11-20T09:58:06;5.90;99.90
67750;DHT22;54550;48.838;8.828;2022-11-20T10:00:35;5.80;99.90
67750;DHT22;54550;48.838;8.828;2022-11-20T10:05:46;5.50;99.90
67750;DHT22;54550;48.838;8.828;2022-11-20T10:08:39;5.50;99.90
67750;DHT22;54550;48.838;8.828;2022-11-20T10:11:28;5.50;99.90
67750;DHT22;54550;48.838;8.828;2022-11-20T10:14:31;5.40;99.90
67750;DHT22;54550;48.838;8.828;2022-11-20T10:25:25;5.10;99.90
67750;DHT22;54550;48.838;8.828;2022-11-20T10:28:25;5.20;99.90
67750;DHT22;54550;48.838;8.828;2022-11-20T10:30:55;5.40;99.90
67750;DHT22;54550;48.838;8.828;2022-11-20T10:33:23;5.40;99.90
67750;DHT22;54550;48.838;8.828;2022-11-20T10:35:52;5.60;99.90
67750;DHT22;54550;48.838;8.828;2022-11-20T10:38:20;5.70;99.90
67750;DHT22;54550;48.838;8.828;2022-11-20T10:40:55;5.90;99.90
67750;DHT22;54550;48.838;8.828;2022-11-20T10:43:41;6.00;99.90
67750;DHT22;54550;48.838;8.828;2022-11-20T10:46:17;6.20;99.90
67750;DHT22;54550;48.838;8.828;2022-11-20T10:48:44;5.80;99.90
67750;DHT22;54550;48.838;8.828;2022-11-20T10:54:29;5.50;99.90
67750;DHT22;54550;48.838;8.828;2022-11-20T10:57:08;5.50;99.90
67750;DHT22;54550;48.838;8.828;2022-11-20T11:02:23;5.70;99.90
67750;DHT22;54550;48.838;8.828;2022-11-20T11:04:53;5.90;99.90
67750;DHT22;54550;48.838;8.828;2022-11-20T11:07:33;6.60;99.90
67750;DHT22;54550;48.838;8.828;2022-11-20T11:10:01;6.70;99.90
67750;DHT22;54550;48.838;8.828;2022-11-20T11:12:28;6.80;99.90
67750;DHT22;54550;48.838;8.828;2022-11-20T11:14:56;7.10;99.90
67750;DHT22;54550;48.838;8.828;2022-11-20T11:17:23;6.90;99.90
67750;DHT22;54550;48.838;8.828;2022-11-20T11:22:45;7.00;99.90
67750;DHT22;54550;48.838;8.828;2022-11-20T11:25:31;7.50;99.90
67750;DHT22;54550;48.838;8.828;2022-11-20T11:30:43;8.30;99.90
67750;DHT22;54550;48.838;8.828;2022-11-20T11:33:11;8.40;99.90
67750;DHT22;54550;48.838;8.828;2022-11-20T11:35:49;8.60;99.90
67750;DHT22;54550;48.838;8.828;2022-11-20T11:38:19;8.90;99.90
67750;DHT22;54550;48.838;8.828;2022-11-20T11:40:46;8.90;99.90
67750;DHT22;54550;48.838;8.828;2022-11-20T11:43:33;9.20;99.90
67750;DHT22;54550;48.838;8.828;2022-11-20T11:46:32;9.40;99.90
67750;DHT22;54550;48.838;8.828;2022-11-20T11:51:34;9.10;99.90
67750;DHT22;54550;48.838;8.828;2022-11-20T11:54:04;8.90;99.90
67750;DHT22;54550;48.838;8.828;2022-11-20T11:56:31;8.80;99.90
67750;DHT22;54550;48.838;8.828;2022-11-20T11:59:00;8.70;99.90
67750;DHT22;54550;48.838;8.828;2022-11-20T12:01:43;8.80;99.90
67750;DHT22;54550;48.838;8.828;2022-11-20T12:04:44;8.50;99.90
67750;DHT22;54550;48.838;8.828;2022-11-20T12:07:20;8.20;99.90
67750;DHT22;54550;48.838;8.828;2022-11-20T12:09:50;8.40;99.90
67750;DHT22;54550;48.838;8.828;2022-11-20T12:12:27;8.30;99.90
67750;DHT22;54550;48.838;8.828;2022-11-20T12:14:55;8.50;99.90
67750;DHT22;54550;48.838;8.828;2022-11-20T12:17:21;8.80;99.90
67750;DHT22;54550;48.838;8.828;2022-11-20T12:19:47;8.70;99.90
67750;DHT22;54550;48.838;8.828;2022-11-20T12:22:33;9.10;99.90
67750;DHT22;54550;48.838;8.828;2022-11-20T12:30:20;8.50;99.90
67750;DHT22;54550;48.838;8.828;2022-11-20T12:38:49;7.70;99.90
67750;DHT22;54550;48.838;8.828;2022-11-20T13:00:16;8.00;99.90
67750;DHT22;54550;48.838;8.828;2022-11-20T13:08:27;8.10;99.90
67750;DHT22;54550;48.838;8.828;2022-11-20T13:11:06;7.80;99.90
67750;DHT22;54550;48.838;8.828;2022-11-20T13:16:50;7.60;99.90
67750;DHT22;54550;48.838;8.828;2022-11-20T13:19:19;7.60;99.90
67750;DHT22;54550;48.838;8.828;2022-11-20T13:21:48;7.60;99.90
67750;DHT22;54550;48.838;8.828;2022-11-20T13:24:21;7.80;99.90
67750;DHT22;54550;48.838;8.828;2022-11-20T13:29:26;8.10;99.90
67750;DHT22;54550;48.838;8.828;2022-11-20T13:32:23;7.60;99.90
67750;DHT22;54550;48.838;8.828;2022-11-20T13:37:35;6.80;99.90
67750;DHT22;54550;48.838;8.828;2022-11-20T13:40:24;6.60;99.90
67750;DHT22;54550;48.838;8.828;2022-11-20T13:45:30;6.30;99.90
67750;DHT22;54550;48.838;8.828;2022-11-20T13:47:57;6.20;99.90
67750;DHT22;54550;48.838;8.828;2022-11-20T13:50:40;6.10;99.90
67750;DHT22;54550;48.838;8.828;2022-11-20T13:53:43;5.90;99.90
67750;DHT22;54550;48.838;8.828;2022-11-20T13:56:17;5.70;99.90
67750;DHT22;54550;48.838;8.828;2022-11-20T13:59:02;5.70;99.90
67750;DHT22;54550;48.838;8.828;2022-11-20T14:01:31;5.60;99.90
67750;DHT22;54550;48.838;8.828;2022-11-20T14:03:58;5.80;99.90
67750;DHT22;54550;48.838;8.828;2022-11-20T14:06:32;5.80;99.90
67750;DHT22;54550;48.838;8.828;2022-11-20T14:09:00;5.80;99.90
67750;DHT22;54550;48.838;8.828;2022-11-20T14:11:30;5.90;99.90
67750;DHT22;54550;48.838;8.828;2022-11-20T14:14:13;5.90;99.90
67750;DHT22;54550;48.838;8.828;2022-11-20T14:16:40;6.00;99.90
67750;DHT22;54550;48.838;8.828;2022-11-20T14:19:27;6.00;99.90
67750;DHT22;54550;48.838;8.828;2022-11-20T14:22:22;6.10;99.90
67750;DHT22;54550;48.838;8.828;2022-11-20T14:24:49;6.10;99.90
67750;DHT22;54550;48.838;8.828;2022-11-20T14:27:25;6.10;99.90
67750;DHT22;54550;48.838;8.828;2022-11-20T14:29:51;6.30;99.90
67750;DHT22;54550;48.838;8.828;2022-11-20T14:32:19;6.40;99.90
67750;DHT22;54550;48.838;8.828;2022-11-20T14:34:48;6.20;99.90
67750;DHT22;54550;48.838;8.828;2022-11-20T14:37:24;6.10;99.90
67750;DHT22;54550;48.838;8.828;2022-11-20T14:39:53;6.10;99.90
67750;DHT22;54550;48.838;8.828;2022-11-20T14:42:22;6.30;99.90
67750;DHT22;54550;48.838;8.828;2022-11-20T14:44:49;6.10;99.90
67750;DHT22;54550;48.838;8.828;2022-11-20T14:47:19;5.90;99.90
67750;DHT22;54550;48.838;8.828;2022-11-20T14:49:47;5.80;99.90
67750;DHT22;54550;48.838;8.828;2022-11-20T14:52:21;6.00;99.90
67750;DHT22;54550;48.838;8.828;2022-11-20T14:54:54;5.80;99.90
67750;DHT22;54550;48.838;8.828;2022-11-20T14:57:34;5.70;99.90
67750;DHT22;54550;48.838;8.828;2022-11-20T15:02:42;5.80;99.90
67750;DHT22;54550;48.838;8.828;2022-11-20T15:05:08;5.50;99.90
67750;DHT22;54550;48.838;8.828;2022-11-20T15:07:40;5.40;99.90
67750;DHT22;54550;48.838;8.828;2022-11-20T15:10:13;5.40;99.90
67750;DHT22;54550;48.838;8.828;2022-11-20T15:12:54;5.30;99.90
67750;DHT22;54550;48.838;8.828;2022-11-20T15:15:35;5.20;99.90
67750;DHT22;54550;48.838;8.828;2022-11-20T15:18:02;5.10;99.90
67750;DHT22;54550;48.838;8.828;2022-11-20T15:20:33;5.00;99.90
67750;DHT22;54550;48.838;8.828;2022-11-20T15:23:01;5.00;99.90
67750;DHT22;54550;48.838;8.828;2022-11-20T15:25:26;4.90;99.90
67750;DHT22;54550;48.838;8.828;2022-11-20T15:27:55;4.80;99.90
67750;DHT22;54550;48.838;8.828;2022-11-20T15:30:21;4.70;99.90
67750;DHT22;54550;48.838;8.828;2022-11-20T15:32:47;4.80;99.90
67750;DHT22;54550;48.838;8.828;2022-11-20T15:35:14;4.60;99.90
67750;DHT22;54550;48.838;8.828;2022-11-20T15:37:40;4.70;99.90
67750;DHT22;54550;48.838;8.828;2022-11-20T15:40:07;4.70;99.90
67750;DHT22;54550;48.838;8.828;2022-11-20T15:42:33;4.80;99.90
67750;DHT22;54550;48.838;8.828;2022-11-20T15:44:59;4.80;99.90
67750;DHT22;54550;48.838;8.828;2022-11-20T15:47:28;5.20;99.90
67750;DHT22;54550;48.838;8.828;2022-11-20T15:49:55;5.00;99.90
67750;DHT22;54550;48.838;8.828;2022-11-20T15:52:21;4.80;99.90
67750;DHT22;54550;48.838;8.828;2022-11-20T15:54:46;4.80;99.90
67750;DHT22;54550;48.838;8.828;2022-11-20T15:57:12;4.80;99.90
67750;DHT22;54550;48.838;8.828;2022-11-20T15:59:38;5.10;99.90
67750;DHT22;54550;48.838;8.828;2022-11-20T16:02:13;4.90;99.90
67750;DHT22;54550;48.838;8.828;2022-11-20T16:04:39;5.00;99.90
67750;DHT22;54550;48.838;8.828;2022-11-20T16:07:05;4.90;99.90
67750;DHT22;54550;48.838;8.828;2022-11-20T16:09:30;5.00;99.90
67750;DHT22;54550;48.838;8.828;2022-11-20T16:11:56;5.00;99.90
67750;DHT22;54550;48.838;8.828;2022-11-20T16:14:25;4.90;99.90
67750;DHT22;54550;48.838;8.828;2022-11-20T16:17:09;5.00;99.90
67750;DHT22;54550;48.838;8.828;2022-11-20T16:19:35;5.10;99.90
67750;DHT22;54550;48.838;8.828;2022-11-20T16:22:00;5.10;99.90
67750;DHT22;54550;48.838;8.828;2022-11-20T16:24:26;5.00;99.90
67750;DHT22;54550;48.838;8.828;2022-11-20T16:26:56;4.90;99.90
67750;DHT22;54550;48.838;8.828;2022-11-20T16:29:21;5.00;99.90
67750;DHT22;54550;48.838;8.828;2022-11-20T16:31:47;4.90;99.90
67750;DHT22;54550;48.838;8.828;2022-11-20T16:34:16;4.80;99.90
67750;DHT22;54550;48.838;8.828;2022-11-20T16:36:43;4.80;99.90
67750;DHT22;54550;48.838;8.828;2022-11-20T16:39:10;4.80;99.90
67750;DHT22;54550;48.838;8.828;2022-11-20T16:41:36;4.80;99.90
67750;DHT22;54550;48.838;8.828;2022-11-20T16:44:06;4.90;99.90
67750;DHT22;54550;48.838;8.828;2022-11-20T16:46:32;4.90;99.90
67750;DHT22;54550;48.838;8.828;2022-11-20T16:49:06;4.80;99.90
67750;DHT22;54550;48.838;8.828;2022-11-20T16:51:34;5.00;99.90
67750;DHT22;54550;48.838;8.828;2022-11-20T16:54:08;4.90;99.90
67750;DHT22;54550;48.838;8.828;2022-11-20T16:56:34;5.30;99.90
67750;DHT22;54550;48.838;8.828;2022-11-20T16:59:00;5.40;99.90
67750;DHT22;54550;48.838;8.828;2022-11-20T17:01:27;5.00;99.90
67750;DHT22;54550;48.838;8.828;2022-11-20T17:03:58;4.80;99.90
67750;DHT22;54550;48.838;8.828;2022-11-20T17:06:27;5.00;99.90
67750;DHT22;54550;48.838;8.828;2022-11-20T17:08:54;5.00;99.90
67750;DHT22;54550;48.838;8.828;2022-11-20T17:11:19;4.90;99.90
67750;DHT22;54550;48.838;8.828;2022-11-20T17:13:46;4.90;99.90
67750;DHT22;54550;48.838;8.828;2022-11-20T17:16:19;4.90;99.90
67750;DHT22;54550;48.838;8.828;2022-11-20T17:18:45;4.80;99.90
67750;DHT22;54550;48.838;8.828;2022-11-20T17:21:11;4.70;99.90
67750;DHT22;54550;48.838;8.828;2022-11-20T17:23:42;4.60;99.90
67750;DHT22;54550;48.838;8.828;2022-11-20T17:26:10;4.50;99.90
67750;DHT22;54550;48.838;8.828;2022-11-20T17:28:37;4.50;99.90
67750;DHT22;54550;48.838;8.828;2022-11-20T17:31:11;4.80;99.90